Rubin Power — 3FNG6 — position and weather

sailwx.info

Track history (hours):
 
Tides and Currents Weather Stations Pressure Air Temp Water Temp Dewpoint Dewpoint Depression Visibility Wind Speed Wind Dir Waves Ship Positions

Rubin Power

Last reported at 2015-Apr-24 12:29 UTC. Time now 2015-May-04 16:05 UTC.
Position S 29°40' E 031°25'.
Warning: this ship's position is 10 days out of date.

Length 218.7 m; beam 32.2 m.

Type: Cargo ship. MMSI: 356808000.

Date/timePositionNaut miles runAvg speedWind from/ knotsBaromVisibWave heightAir tempDewpointWater temp
2015-Apr-24 12:29S 29°40' E 031°25'1212.6
2015-Apr-24 11:33S 29°48' E 031°15'8 7.6
2015-Apr-24 10:33S 29°53' E 031°08'0 0.2
2015-Apr-24 09:33S 29°53' E 031°08'1 0.5
2015-Apr-24 08:33S 29°53' E 031°08'0 0.3
2015-Apr-24 07:33S 29°54' E 031°08'0 0.3
2015-Apr-24 06:32S 29°54' E 031°08'3 2.8
2015-Apr-24 05:33S 29°56' E 031°07'6 4.8
2015-Apr-24 04:17S 30°02' E 031°04'1 0.6
2015-Apr-24 03:17S 30°02' E 031°04'4 4.4
2015-Apr-24 02:22S 30°04' E 031°01'187 8.6
2015-Apr-23 04:28S 32°32' E 028°46'  
Track history (hours):
 
Tides and Currents Weather Stations Pressure Air Temp Water Temp Dewpoint Dewpoint Depression Visibility Wind Speed Wind Dir Waves Ship Positions

Rubin Power

Last reported at 2015-Apr-24 12:29 UTC. Time now 2015-May-04 16:05 UTC.
Position S 29°40' E 031°25'.
Warning: this ship's position is 10 days out of date.

Length 218.7 m; beam 32.2 m.

Type: Cargo ship. MMSI: 356808000.

Date/timePositionNaut miles runAvg speedWind from/ knotsBaromVisibWave heightAir tempDewpointWater temp
2015-Apr-24 12:29S 29°40' E 031°25'1212.6
2015-Apr-24 11:33S 29°48' E 031°15'8 7.6
2015-Apr-24 10:33S 29°53' E 031°08'0 0.2
2015-Apr-24 09:33S 29°53' E 031°08'1 0.5
2015-Apr-24 08:33S 29°53' E 031°08'0 0.3
2015-Apr-24 07:33S 29°54' E 031°08'0 0.3
2015-Apr-24 06:32S 29°54' E 031°08'3 2.8
2015-Apr-24 05:33S 29°56' E 031°07'6 4.8
2015-Apr-24 04:17S 30°02' E 031°04'1 0.6
2015-Apr-24 03:17S 30°02' E 031°04'4 4.4
2015-Apr-24 02:22S 30°04' E 031°01'187 8.6
2015-Apr-23 04:28S 32°32' E 028°46'  

Dump ship's entire track history